WetterOnline ( https://www.wetteronline.at )

Wetter aktuell St. Peter-Ording

Aktuelles Wetter: St. Peter-Ording (11m)

6-stündlich | Neueste Meldungen
Ortszeit Temperatur Wetter
Mo, 14.10. 2:00 14.3° C fast wolkenlos
So, 13.10. 20:00 16.2° C bedeckt
So, 13.10. 14:00 12.4° C bedeckt
So, 13.10. 8:00 10.8° C bewölkt
So, 13.10. 2:00 12.2° C leichter Regen
Sa, 12.10. 20:00 12.9° C bewölkt
Sa, 12.10. 14:00 13.1° C wolkig
Sa, 12.10. 8:00 12.6° C leichter Regen
Ortszeit Temperatur Wetter
Mo, 14.10. 4:00 14.0° C leicht bewölkt
Mo, 14.10. 3:50 14.0° C leicht bewölkt
Mo, 14.10. 3:40 13.9° C leicht bewölkt
Mo, 14.10. 3:30 14.2° C wolkig
Mo, 14.10. 3:20 14.2° C wolkig
Mo, 14.10. 3:10 14.4° C wolkig
Mo, 14.10. 3:00 14.4° C wolkig
Mo, 14.10. 2:30 14.6° C wolkig
Mo, 14.10. 2:00 14.3° C fast wolkenlos
Mo, 14.10. 1:30 14.5° C wolkenlos
Mo, 14.10. 1:00 14.6° C wolkenlos
Ortszeit Relative Feuchte Sichtweite
Mo, 14.10. 2:00 88% 12 km
So, 13.10. 20:00 90% 25 km
So, 13.10. 14:00 97% 5.0 km
So, 13.10. 8:00 97% 8 km
So, 13.10. 2:00 93% 18 km
Sa, 12.10. 20:00 92% 18 km
Sa, 12.10. 14:00 84% 29 km
Sa, 12.10. 8:00 88% 16 km
Ortszeit Relative Feuchte Sichtweite
Mo, 14.10. 4:00 81% 14 km
Mo, 14.10. 3:50 81% -
Mo, 14.10. 3:40 80% -
Mo, 14.10. 3:30 82% 16 km
Mo, 14.10. 3:20 82% -
Mo, 14.10. 3:10 82% -
Mo, 14.10. 3:00 81% 14 km
Mo, 14.10. 2:30 86% 12 km
Mo, 14.10. 2:00 88% 12 km
Mo, 14.10. 1:30 88% 13 km
Mo, 14.10. 1:00 88% 13 km
Ortszeit Niederschlagsmenge Niederschlagsart
Mo, 14.10. 2:00 0.1 l/m2 in 6 Std. Regen
So, 13.10. 20:00 2 l/m2 in 12 Std. Regen
So, 13.10. 14:00 0.2 l/m2 in 6 Std. Regen
So, 13.10. 8:00 2 l/m2 in 12 Std. Regen
So, 13.10. 2:00 0.8 l/m2 in 6 Std. Regen
Sa, 12.10. 20:00 0.1 l/m2 in 12 Std. Regen
Sa, 12.10. 14:00 0.1 l/m2 in 6 Std. Regen
Sa, 12.10. 8:00 3 l/m2 in 12 Std. Regen
Ortszeit Niederschlagsmenge Niederschlagsart
Mo, 14.10. 4:00 0.0 l/m2 in 1 Std. -
Mo, 14.10. 3:50 keine Meldung -
Mo, 14.10. 3:40 keine Meldung -
Mo, 14.10. 3:30 0.0 l/m2 in 1 Std. -
Mo, 14.10. 3:20 keine Meldung -
Mo, 14.10. 3:10 keine Meldung -
Mo, 14.10. 3:00 0.0 l/m2 in 1 Std. -
Mo, 14.10. 2:30 0.0 l/m2 in 1 Std. -
Mo, 14.10. 2:00 0.0 l/m2 in 1 Std. Regen
Mo, 14.10. 1:30 0.0 l/m2 in 1 Std. -
Mo, 14.10. 1:00 0.0 l/m2 in 1 Std. -
Ortszeit Stärke Spitze Richtung
km/h Bft. km/h Grad Sektor
Mo, 14.10. 2:00 43 6 65 240° SW
So, 13.10. 20:00 32 5 50 180° S
So, 13.10. 14:00 17 3 30 120° SO
So, 13.10. 8:00 7 2 32 140° SO
So, 13.10. 2:00 24 4 41 220° SW
Sa, 12.10. 20:00 29 5 50 230° SW
Sa, 12.10. 14:00 35 5 52 230° SW
Sa, 12.10. 8:00 31 5 43 240° SW
Ortszeit Stärke Spitze Richtung
km/h Bft. km/h Grad Sektor
Mo, 14.10. 4:00 40 6 58 250° W
Mo, 14.10. 3:50 40 6 - 250° W
Mo, 14.10. 3:40 43 6 - 250° W
Mo, 14.10. 3:30 41 6 56 250° W
Mo, 14.10. 3:20 41 6 - 250° W
Mo, 14.10. 3:10 43 6 - 240° SW
Mo, 14.10. 3:00 43 6 68 250° W
Mo, 14.10. 2:30 47 6 68 240° SW
Mo, 14.10. 2:00 43 6 61 240° SW
Mo, 14.10. 1:30 43 6 58 240° SW
Mo, 14.10. 1:00 43 6 65 240° SW
Ortszeit Untergrenze Bedeckung Gattung
total tief tief mittel hoch
Mo, 14.10. 2:00 9000 m 1/8 0/8 - - -
So, 13.10. 20:00 3300 m 8/8 8/8 - - -
So, 13.10. 14:00 90 m 8/8 8/8 - - -
So, 13.10. 8:00 150 m 7/8 8/8 - - -
So, 13.10. 2:00 240 m 7/8 7/8 - - -
Sa, 12.10. 20:00 2100 m 7/8 6/8 - - -
Sa, 12.10. 14:00 2100 m 8/8 2/8 - - -
Sa, 12.10. 8:00 840 m 7/8 7/8 - - -
Ortszeit Bedeckungsgrad in Achtel und Wolkenuntergrenze
Mo, 14.10. 4:00 3(870m) 5(1050m)
Mo, 14.10. 3:50 3(870m)
Mo, 14.10. 3:40 2(810m) 3(990m)
Mo, 14.10. 3:30 2(720m) 6(960m)
Mo, 14.10. 3:20 2(720m) 6(960m)
Mo, 14.10. 3:10 2(720m) 6(1020m)
Mo, 14.10. 3:00 2(780m) 6(990m)
Mo, 14.10. 2:30 2(510m) 3(750m) 5(990m)
Mo, 14.10. 2:00 1(9000m) 1(9000m)
Mo, 14.10. 1:30 keine Wolken
Mo, 14.10. 1:00 keine Wolken
Ortszeit Luftdruck NN (hPa) Tendenz (hPa in 3 Std.)
Mo, 14.10. 2:00 1006 + 2,3
So, 13.10. 20:00 1003 - 2,3
So, 13.10. 14:00 1008 - 1,3
So, 13.10. 8:00 1010 - 0,4
So, 13.10. 2:00 1010 + 0,5
Sa, 12.10. 20:00 1009 + 0,7
Sa, 12.10. 14:00 1007 + 1,7
Sa, 12.10. 8:00 1004 + 0,7
Ortszeit Luftdruck NN (hPa) Tendenz (hPa in 3 Std.)
Mo, 14.10. 4:00 1008 + 2,6
Mo, 14.10. 3:50 1008 keine Meldung
Mo, 14.10. 3:40 1008 keine Meldung
Mo, 14.10. 3:30 1008 + 2,9
Mo, 14.10. 3:20 1008 keine Meldung
Mo, 14.10. 3:10 1008 keine Meldung
Mo, 14.10. 3:00 1008 + 2,8
Mo, 14.10. 2:30 1007 + 2,5
Mo, 14.10. 2:00 1006 + 2,3
Mo, 14.10. 1:30 1006 + 2,0
Mo, 14.10. 1:00 1006 + 2,1
Ortszeit Schneehöhe (cm)
Mo, 14.10. 2:00 0
So, 13.10. 20:00 0
So, 13.10. 14:00 0
So, 13.10. 8:00 0
So, 13.10. 2:00 0
Sa, 12.10. 20:00 0
Sa, 12.10. 14:00 0
Sa, 12.10. 8:00 0
Ortszeit Schneehöhe (cm)
Mo, 14.10. 4:00 0
Mo, 14.10. 3:50 0
Mo, 14.10. 3:40 0
Mo, 14.10. 3:30 0
Mo, 14.10. 3:20 0
Mo, 14.10. 3:10 0
Mo, 14.10. 3:00 0
Mo, 14.10. 2:30 0
Mo, 14.10. 2:00 0
Mo, 14.10. 1:30 0
Mo, 14.10. 1:00 0
Link zu dieser Seite / Seite empfehlen

Das Wetter in ...